Time;durP1;ratioP1;P1;durP2;ratioP2;P2;SDS_P1;SDS_P2;PMS_P1;PMS_P2;Temp;Humidity;BMP_temperature;BMP_pressure;BME280_temperature;BME280_humidity;BME280_pressure;Samples;Min_cycle;Max_cycle;Signal;HPM_P1;HPM_P2
2021/04/22 00:01:36;;;;;;;3.01;2.71;;;;;;;19.76;43.97;100526.50;;;;-58
2021/04/22 00:04:36;;;;;;;3.19;2.90;;;;;;;19.75;44.05;100527.53;;;;-58
2021/04/22 00:07:35;;;;;;;3.09;2.79;;;;;;;19.74;44.07;100525.19;;;;-58
2021/04/22 00:10:35;;;;;;;3.10;2.80;;;;;;;19.73;44.06;100528.18;;;;-57
2021/04/22 00:13:36;;;;;;;2.97;2.77;;;;;;;19.72;44.04;100533.39;;;;-58
2021/04/22 00:16:36;;;;;;;3.10;2.80;;;;;;;19.70;44.05;100536.59;;;;-58
2021/04/22 00:19:35;;;;;;;3.21;2.91;;;;;;;19.70;44.11;100549.85;;;;-58
2021/04/22 00:22:36;;;;;;;2.91;2.71;;;;;;;19.68;44.08;100550.89;;;;-61
2021/04/22 00:25:36;;;;;;;2.97;2.69;;;;;;;19.68;44.09;100551.46;;;;-61
2021/04/22 00:28:36;;;;;;;2.75;2.55;;;;;;;19.67;44.10;100551.68;;;;-61
2021/04/22 00:31:35;;;;;;;3.48;2.67;;;;;;;19.64;44.06;100550.05;;;;-62
2021/04/22 00:34:35;;;;;;;2.80;2.60;;;;;;;19.64;44.08;100555.09;;;;-61
2021/04/22 00:37:35;;;;;;;3.04;2.77;;;;;;;19.63;44.09;100546.80;;;;-61
2021/04/22 00:40:35;;;;;;;2.95;2.75;;;;;;;19.63;44.06;100557.42;;;;-58
2021/04/22 00:43:35;;;;;;;3.16;2.75;;;;;;;19.61;44.08;100555.14;;;;-58
2021/04/22 00:46:36;;;;;;;2.94;2.73;;;;;;;19.60;44.08;100559.05;;;;-58
2021/04/22 00:49:36;;;;;;;3.23;2.84;;;;;;;19.59;44.05;100559.27;;;;-58
2021/04/22 00:52:35;;;;;;;3.03;2.78;;;;;;;19.59;44.11;100567.72;;;;-58
2021/04/22 00:55:35;;;;;;;2.91;2.69;;;;;;;19.56;44.16;100568.27;;;;-58
2021/04/22 00:58:35;;;;;;;3.01;2.71;;;;;;;19.56;44.12;100570.23;;;;-58
2021/04/22 01:01:36;;;;;;;3.34;3.04;;;;;;;19.55;44.10;100573.16;;;;-58
2021/04/22 01:04:35;;;;;;;3.25;2.95;;;;;;;19.54;44.11;100577.12;;;;-58
2021/04/22 01:07:35;;;;;;;3.17;2.93;;;;;;;19.53;44.14;100581.03;;;;-58
2021/04/22 01:10:36;;;;;;;3.08;2.81;;;;;;;19.52;44.11;100582.71;;;;-58
2021/04/22 01:13:36;;;;;;;2.97;2.71;;;;;;;19.52;44.18;100586.78;;;;-58
2021/04/22 01:16:35;;;;;;;3.00;2.79;;;;;;;19.51;44.17;100592.53;;;;-58
2021/04/22 01:19:35;;;;;;;2.95;2.65;;;;;;;19.49;44.19;100596.92;;;;-58
2021/04/22 01:22:35;;;;;;;3.34;3.03;;;;;;;19.49;44.14;100598.55;;;;-59
2021/04/22 01:25:36;;;;;;;3.21;2.91;;;;;;;19.48;44.11;100598.20;;;;-60
2021/04/22 01:28:35;;;;;;;3.19;2.90;;;;;;;19.47;44.15;100599.19;;;;-58
2021/04/22 01:31:35;;;;;;;3.13;2.85;;;;;;;19.46;44.11;100593.14;;;;-58
2021/04/22 01:34:35;;;;;;;2.95;2.70;;;;;;;19.45;44.18;100599.00;;;;-58
2021/04/22 01:37:35;;;;;;;3.30;3.00;;;;;;;19.45;44.14;100599.17;;;;-57
2021/04/22 01:40:35;;;;;;;3.11;2.83;;;;;;;19.45;44.15;100604.94;;;;-57
2021/04/22 01:43:36;;;;;;;3.19;2.89;;;;;;;19.43;44.17;100605.56;;;;-58
2021/04/22 01:46:36;;;;;;;3.33;2.88;;;;;;;19.43;44.18;100611.34;;;;-58
2021/04/22 01:49:35;;;;;;;3.18;2.88;;;;;;;19.41;44.20;100608.88;;;;-58
2021/04/22 01:52:35;;;;;;;3.25;2.95;;;;;;;19.41;44.17;100611.08;;;;-58
2021/04/22 01:55:36;;;;;;;3.27;2.97;;;;;;;19.40;44.16;100616.36;;;;-58
2021/04/22 01:58:36;;;;;;;3.49;3.17;;;;;;;19.40;44.17;100616.91;;;;-58
2021/04/22 02:01:35;;;;;;;3.30;2.91;;;;;;;19.39;44.21;100621.05;;;;-57
2021/04/22 02:04:35;;;;;;;3.31;3.01;;;;;;;19.38;44.16;100628.61;;;;-58
2021/04/22 02:07:35;;;;;;;3.33;2.95;;;;;;;19.37;44.17;100629.89;;;;-61
2021/04/22 02:10:35;;;;;;;3.01;2.80;;;;;;;19.36;44.19;100629.16;;;;-61
2021/04/22 02:13:35;;;;;;;3.48;3.18;;;;;;;19.37;44.16;100632.58;;;;-62
2021/04/22 02:16:35;;;;;;;3.17;2.93;;;;;;;19.35;44.18;100631.25;;;;-60
2021/04/22 02:19:35;;;;;;;3.28;2.98;;;;;;;19.35;44.17;100636.70;;;;-60
2021/04/22 02:22:35;;;;;;;3.27;2.97;;;;;;;19.33;44.18;100642.20;;;;-62
2021/04/22 02:25:35;;;;;;;3.22;2.92;;;;;;;19.33;44.18;100648.38;;;;-61
2021/04/22 02:28:36;;;;;;;3.06;2.81;;;;;;;19.32;44.18;100650.50;;;;-61
2021/04/22 02:31:35;;;;;;;3.02;2.80;;;;;;;19.31;44.19;100651.77;;;;-62
2021/04/22 02:34:35;;;;;;;3.15;2.80;;;;;;;19.30;44.16;100654.53;;;;-62
2021/04/22 02:37:35;;;;;;;3.20;2.98;;;;;;;19.30;44.21;100658.03;;;;-61
2021/04/22 02:40:35;;;;;;;3.51;3.21;;;;;;;19.29;44.22;100657.59;;;;-61
2021/04/22 02:43:36;;;;;;;3.28;2.98;;;;;;;19.28;44.20;100658.25;;;;-61
2021/04/22 02:46:35;;;;;;;3.15;2.87;;;;;;;19.27;44.23;100657.25;;;;-60
2021/04/22 02:49:35;;;;;;;3.02;2.82;;;;;;;19.26;44.18;100662.45;;;;-61
2021/04/22 02:52:36;;;;;;;3.11;2.80;;;;;;;19.26;44.22;100672.28;;;;-61
2021/04/22 02:55:35;;;;;;;3.42;3.02;;;;;;;19.26;44.22;100670.87;;;;-61
2021/04/22 02:58:35;;;;;;;3.34;3.04;;;;;;;19.25;44.22;100675.03;;;;-60
2021/04/22 03:01:35;;;;;;;3.11;2.80;;;;;;;19.24;44.20;100686.00;;;;-61
2021/04/22 03:04:35;;;;;;;2.95;2.73;;;;;;;19.23;44.21;100682.39;;;;-60
2021/04/22 03:07:35;;;;;;;3.13;2.85;;;;;;;19.22;44.20;100684.42;;;;-58
2021/04/22 03:10:35;;;;;;;3.20;2.90;;;;;;;19.22;44.20;100685.66;;;;-58
2021/04/22 03:13:35;;;;;;;3.15;2.85;;;;;;;19.21;44.21;100688.70;;;;-58
2021/04/22 03:16:36;;;;;;;3.07;2.87;;;;;;;19.19;44.21;100688.20;;;;-58
2021/04/22 03:19:35;;;;;;;3.26;2.96;;;;;;;19.19;44.26;100692.34;;;;-58
2021/04/22 03:22:36;;;;;;;2.91;2.69;;;;;;;19.17;44.23;100689.23;;;;-58
2021/04/22 03:25:36;;;;;;;3.34;2.88;;;;;;;19.18;44.21;100694.37;;;;-58
2021/04/22 03:28:35;;;;;;;3.26;2.90;;;;;;;19.18;44.23;100693.32;;;;-58
2021/04/22 03:31:35;;;;;;;2.91;2.71;;;;;;;19.17;44.21;100697.69;;;;-58
2021/04/22 03:34:35;;;;;;;3.07;2.78;;;;;;;19.16;44.23;100701.17;;;;-58
2021/04/22 03:37:36;;;;;;;3.08;2.79;;;;;;;19.16;44.21;100702.80;;;;-58
2021/04/22 03:40:35;;;;;;;3.19;2.81;;;;;;;19.16;44.22;100703.29;;;;-58
2021/04/22 03:43:35;;;;;;;3.09;2.79;;;;;;;19.14;44.22;100703.75;;;;-58
2021/04/22 03:46:35;;;;;;;3.09;2.83;;;;;;;19.14;44.23;100706.92;;;;-58
2021/04/22 03:49:35;;;;;;;2.95;2.51;;;;;;;19.14;44.19;100713.34;;;;-58
2021/04/22 03:52:35;;;;;;;2.76;2.56;;;;;;;19.13;44.20;100719.97;;;;-57
2021/04/22 03:55:35;;;;;;;3.13;2.70;;;;;;;19.12;44.20;100715.59;;;;-58
2021/04/22 03:58:35;;;;;;;2.91;2.69;;;;;;;19.12;44.22;100719.57;;;;-58
2021/04/22 04:01:35;;;;;;;2.79;2.59;;;;;;;19.11;44.19;100724.20;;;;-58
2021/04/22 04:04:35;;;;;;;2.83;2.59;;;;;;;19.11;44.19;100727.91;;;;-58
2021/04/22 04:07:35;;;;;;;2.95;2.69;;;;;;;19.10;44.20;100732.70;;;;-57
2021/04/22 04:10:36;;;;;;;2.85;2.65;;;;;;;19.09;44.22;100738.85;;;;-57
2021/04/22 04:13:35;;;;;;;2.83;2.63;;;;;;;19.09;44.23;100737.47;;;;-58
2021/04/22 04:16:35;;;;;;;3.02;2.75;;;;;;;19.08;44.24;100742.91;;;;-58
2021/04/22 04:19:35;;;;;;;2.70;2.50;;;;;;;19.08;44.22;100743.16;;;;-57
2021/04/22 04:22:36;;;;;;;2.52;2.32;;;;;;;19.07;44.21;100742.16;;;;-58
2021/04/22 04:25:35;;;;;;;2.74;2.54;;;;;;;19.07;44.22;100750.69;;;;-57
2021/04/22 04:28:35;;;;;;;2.88;2.68;;;;;;;19.06;44.21;100748.01;;;;-58
2021/04/22 04:31:35;;;;;;;2.73;2.52;;;;;;;19.06;44.23;100756.13;;;;-58
2021/04/22 04:34:35;;;;;;;2.62;2.42;;;;;;;19.05;44.17;100758.13;;;;-58
2021/04/22 04:37:35;;;;;;;2.77;2.51;;;;;;;19.05;44.17;100761.54;;;;-57
2021/04/22 04:40:35;;;;;;;3.05;2.66;;;;;;;19.05;44.17;100763.98;;;;-57
2021/04/22 04:43:35;;;;;;;2.74;2.49;;;;;;;19.03;44.17;100777.30;;;;-57
2021/04/22 04:46:35;;;;;;;2.65;2.45;;;;;;;19.03;44.18;100785.59;;;;-58
2021/04/22 04:49:35;;;;;;;3.62;2.54;;;;;;;19.02;44.14;100791.41;;;;-57
2021/04/22 04:52:35;;;;;;;2.73;2.50;;;;;;;19.02;44.16;100796.20;;;;-57
2021/04/22 04:55:35;;;;;;;3.05;2.45;;;;;;;19.01;44.16;100796.03;;;;-58
2021/04/22 04:58:35;;;;;;;2.59;2.39;;;;;;;19.00;44.14;100809.90;;;;-58
2021/04/22 05:01:35;;;;;;;3.16;2.58;;;;;;;18.98;43.60;100816.28;;;;-50
2021/04/22 05:04:35;;;;;;;8.58;3.82;;;;;;;18.69;41.52;100824.44;;;;-51
2021/04/22 05:07:35;;;;;;;6.36;3.89;;;;;;;18.44;40.92;100825.91;;;;-54
2021/04/22 05:10:35;;;;;;;9.94;4.20;;;;;;;18.20;40.81;100839.23;;;;-56
2021/04/22 05:13:36;;;;;;;8.95;3.99;;;;;;;18.17;41.37;100835.10;;;;-50
2021/04/22 05:16:36;;;;;;;7.87;3.64;;;;;;;18.27;41.88;100843.48;;;;-52
2021/04/22 05:19:35;;;;;;;5.78;3.15;;;;;;;18.35;42.25;100852.06;;;;-53
2021/04/22 05:22:35;;;;;;;6.31;3.23;;;;;;;18.43;42.33;100863.40;;;;-51
2021/04/22 05:25:35;;;;;;;5.41;2.77;;;;;;;18.50;42.38;100862.86;;;;-51
2021/04/22 05:28:35;;;;;;;3.51;2.43;;;;;;;18.55;42.56;100860.98;;;;-50
2021/04/22 05:31:36;;;;;;;5.53;2.73;;;;;;;18.60;42.65;100866.68;;;;-47
2021/04/22 05:34:35;;;;;;;4.63;2.53;;;;;;;18.64;42.74;100878.52;;;;-47
2021/04/22 05:37:36;;;;;;;4.32;2.41;;;;;;;18.69;42.83;100877.61;;;;-53
2021/04/22 05:40:35;;;;;;;5.12;2.52;;;;;;;18.74;42.88;100889.05;;;;-50
2021/04/22 05:43:35;;;;;;;3.51;2.17;;;;;;;18.80;42.80;100893.16;;;;-50
2021/04/22 05:46:35;;;;;;;3.25;2.19;;;;;;;18.84;42.85;100896.23;;;;-47
2021/04/22 05:49:35;;;;;;;4.53;2.33;;;;;;;18.87;42.87;100895.08;;;;-47
2021/04/22 05:52:35;;;;;;;2.98;2.10;;;;;;;18.91;42.87;100893.27;;;;-50
2021/04/22 05:55:35;;;;;;;3.53;2.22;;;;;;;18.95;42.95;100899.34;;;;-54
2021/04/22 05:58:35;;;;;;;4.13;2.19;;;;;;;18.98;43.02;100909.69;;;;-54
2021/04/22 06:01:36;;;;;;;4.16;2.29;;;;;;;19.02;43.08;100912.27;;;;-54
2021/04/22 06:04:35;;;;;;;3.45;2.07;;;;;;;19.05;43.20;100916.88;;;;-50
2021/04/22 06:07:35;;;;;;;5.75;2.46;;;;;;;19.07;43.11;100919.11;;;;-50
2021/04/22 06:10:38;;;;;;;3.29;2.15;;;;;;;19.09;43.10;100920.77;;;;-47
2021/04/22 06:13:35;;;;;;;2.69;2.13;;;;;;;19.11;43.19;100928.32;;;;-54
2021/04/22 06:16:35;;;;;;;2.50;2.00;;;;;;;19.13;43.22;100934.45;;;;-50
2021/04/22 06:19:35;;;;;;;3.34;1.89;;;;;;;19.14;43.25;100934.16;;;;-50
2021/04/22 06:22:35;;;;;;;3.35;2.09;;;;;;;19.15;43.19;100939.27;;;;-50
2021/04/22 06:25:35;;;;;;;3.17;1.99;;;;;;;19.16;43.28;100943.94;;;;-50
2021/04/22 06:28:35;;;;;;;2.83;1.78;;;;;;;19.17;43.23;100945.40;;;;-47
2021/04/22 06:31:35;;;;;;;3.12;2.10;;;;;;;19.18;43.21;100952.25;;;;-50
2021/04/22 06:34:36;;;;;;;2.71;1.90;;;;;;;19.19;43.26;100954.77;;;;-50
2021/04/22 06:37:35;;;;;;;3.01;1.98;;;;;;;19.19;43.30;100955.66;;;;-50
2021/04/22 06:40:35;;;;;;;2.61;1.85;;;;;;;19.20;43.27;100958.38;;;;-50
2021/04/22 06:43:35;;;;;;;2.95;1.90;;;;;;;19.20;43.26;100965.05;;;;-50
2021/04/22 06:46:36;;;;;;;3.97;1.95;;;;;;;19.21;43.25;100967.08;;;;-50
2021/04/22 06:49:35;;;;;;;3.59;1.90;;;;;;;19.21;43.22;100967.56;;;;-50
2021/04/22 06:52:35;;;;;;;2.20;1.75;;;;;;;19.21;43.25;100969.43;;;;-50
2021/04/22 06:55:35;;;;;;;2.25;1.80;;;;;;;19.21;43.18;100973.33;;;;-54
2021/04/22 06:58:35;;;;;;;2.60;1.79;;;;;;;19.22;43.26;100979.94;;;;-54
2021/04/22 07:01:35;;;;;;;3.05;1.85;;;;;;;19.22;43.22;100984.49;;;;-54
2021/04/22 07:04:35;;;;;;;3.75;1.96;;;;;;;19.21;43.21;100990.39;;;;-50
2021/04/22 07:07:35;;;;;;;3.04;1.81;;;;;;;19.22;43.17;101001.23;;;;-50
2021/04/22 07:10:37;;;;;;;2.43;1.82;;;;;;;19.21;43.20;100999.01;;;;-50
2021/04/22 07:13:35;;;;;;;2.87;1.73;;;;;;;19.21;43.18;101000.39;;;;-50
2021/04/22 07:16:35;;;;;;;2.21;1.71;;;;;;;19.21;43.22;101005.02;;;;-50
2021/04/22 07:19:38;;;;;;;1.83;1.63;;;;;;;19.20;43.13;101007.05;;;;-50
2021/04/22 07:22:35;;;;;;;2.18;1.77;;;;;;;19.21;43.18;101009.33;;;;-47
2021/04/22 07:25:35;;;;;;;2.07;1.65;;;;;;;19.20;43.17;101012.25;;;;-50
2021/04/22 07:28:35;;;;;;;2.37;1.87;;;;;;;19.20;43.18;101008.84;;;;-50
2021/04/22 07:31:36;;;;;;;2.59;1.62;;;;;;;19.19;43.16;101016.03;;;;-50
2021/04/22 07:34:35;;;;;;;2.12;1.61;;;;;;;19.19;43.18;101013.44;;;;-55
2021/04/22 07:37:35;;;;;;;2.89;1.70;;;;;;;19.19;43.12;101014.25;;;;-50
2021/04/22 07:40:35;;;;;;;6.39;2.07;;;;;;;19.19;43.11;101016.03;;;;-59
2021/04/22 07:43:36;;;;;;;3.71;1.80;;;;;;;19.20;43.59;101017.05;;;;-56
2021/04/22 07:46:35;;;;;;;4.45;1.90;;;;;;;19.23;43.74;101023.82;;;;-48
2021/04/22 07:49:35;;;;;;;3.93;1.70;;;;;;;19.25;43.83;101028.89;;;;-49
2021/04/22 07:52:35;;;;;;;6.99;1.80;;;;;;;19.28;44.08;101029.53;;;;-52
2021/04/22 07:55:36;;;;;;;2.67;1.76;;;;;;;19.34;43.88;101031.62;;;;-59
2021/04/22 07:58:35;;;;;;;3.19;1.67;;;;;;;19.40;44.13;101034.41;;;;-52
2021/04/22 08:01:35;;;;;;;2.60;1.81;;;;;;;19.44;43.90;101037.76;;;;-50
2021/04/22 08:04:35;;;;;;;3.27;1.61;;;;;;;19.49;43.61;101034.00;;;;-56
2021/04/22 08:07:35;;;;;;;3.53;1.69;;;;;;;19.53;43.01;101032.60;;;;-51
2021/04/22 08:10:35;;;;;;;2.47;1.69;;;;;;;19.57;43.33;101038.35;;;;-54
2021/04/22 08:13:37;;;;;;;2.63;1.80;;;;;;;19.61;43.29;101035.95;;;;-56
2021/04/22 08:16:35;;;;;;;2.81;1.61;;;;;;;19.66;43.42;101041.89;;;;-51
2021/04/22 08:19:36;;;;;;;1.96;1.52;;;;;;;19.69;43.32;101047.86;;;;-49
2021/04/22 08:22:35;;;;;;;4.06;1.93;;;;;;;19.75;43.64;101043.10;;;;-47
2021/04/22 08:25:35;;;;;;;3.65;1.63;;;;;;;19.79;43.67;101046.66;;;;-47
2021/04/22 08:28:35;;;;;;;2.48;1.76;;;;;;;19.87;43.92;101048.98;;;;-50
2021/04/22 08:31:35;;;;;;;3.17;1.67;;;;;;;19.89;43.89;101050.47;;;;-53
2021/04/22 08:34:35;;;;;;;4.83;1.87;;;;;;;19.94;44.04;101055.73;;;;-62
2021/04/22 08:37:36;;;;;;;3.09;1.68;;;;;;;19.97;44.09;101051.72;;;;-50
2021/04/22 08:40:35;;;;;;;2.66;1.51;;;;;;;20.00;44.05;101057.03;;;;-49
2021/04/22 08:43:35;;;;;;;2.00;1.58;;;;;;;20.04;44.00;101049.52;;;;-51
2021/04/22 08:46:35;;;;;;;3.42;1.72;;;;;;;20.08;43.92;101052.84;;;;-58
2021/04/22 08:49:35;;;;;;;2.56;1.45;;;;;;;20.12;43.89;101054.11;;;;-50
2021/04/22 08:52:35;;;;;;;2.81;1.60;;;;;;;20.15;44.02;101053.81;;;;-49
2021/04/22 08:55:35;;;;;;;2.57;1.52;;;;;;;20.20;44.09;101055.03;;;;-52
2021/04/22 08:58:35;;;;;;;2.24;1.50;;;;;;;20.21;43.72;101060.97;;;;-53
2021/04/22 09:01:37;;;;;;;2.47;1.70;;;;;;;20.24;44.10;101059.81;;;;-50
2021/04/22 09:04:35;;;;;;;3.51;1.73;;;;;;;20.27;43.97;101067.89;;;;-55
2021/04/22 09:07:35;;;;;;;2.67;1.59;;;;;;;20.29;44.07;101064.69;;;;-49
2021/04/22 09:10:35;;;;;;;1.88;1.44;;;;;;;20.32;43.97;101067.89;;;;-50
2021/04/22 09:13:35;;;;;;;3.26;1.71;;;;;;;20.34;44.04;101062.22;;;;-45
2021/04/22 09:16:35;;;;;;;2.31;1.58;;;;;;;20.39;43.90;101064.55;;;;-48
2021/04/22 09:19:35;;;;;;;6.46;1.73;;;;;;;20.38;43.68;101066.06;;;;-47
2021/04/22 09:22:36;;;;;;;3.04;1.62;;;;;;;20.35;42.97;101063.68;;;;-52
2021/04/22 09:25:35;;;;;;;4.19;1.83;;;;;;;20.34;42.98;101065.23;;;;-49
2021/04/22 09:28:35;;;;;;;2.77;1.48;;;;;;;20.32;42.97;101062.76;;;;-54
2021/04/22 09:31:35;;;;;;;3.96;1.71;;;;;;;20.35;43.13;101061.41;;;;-52
2021/04/22 09:34:35;;;;;;;3.21;1.49;;;;;;;20.38;43.33;101063.66;;;;-53
2021/04/22 09:37:35;;;;;;;3.53;1.50;;;;;;;20.41;43.62;101063.03;;;;-52
2021/04/22 09:40:36;;;;;;;3.79;1.53;;;;;;;20.42;43.33;101063.22;;;;-59
2021/04/22 09:43:35;;;;;;;5.95;1.66;;;;;;;20.43;43.37;101062.88;;;;-51
2021/04/22 09:46:40;;;;;;;2.93;1.65;;;;;;;20.46;43.54;101060.22;;;;-52
2021/04/22 09:49:35;;;;;;;6.43;1.54;;;;;;;20.48;43.94;101059.02;;;;-56
2021/04/22 09:52:37;;;;;;;3.11;1.65;;;;;;;20.51;43.70;101055.90;;;;-51
2021/04/22 09:55:35;;;;;;;2.60;1.49;;;;;;;20.54;43.75;101059.91;;;;-52
2021/04/22 09:58:35;;;;;;;3.07;1.59;;;;;;;20.54;43.73;101057.80;;;;-51
2021/04/22 10:01:35;;;;;;;3.13;1.57;;;;;;;20.55;43.67;101054.64;;;;-52
2021/04/22 10:04:35;;;;;;;2.25;1.50;;;;;;;20.58;43.73;101059.42;;;;-51
2021/04/22 10:07:35;;;;;;;4.41;1.56;;;;;;;20.59;43.90;101060.02;;;;-51
2021/04/22 10:10:35;;;;;;;5.97;1.74;;;;;;;20.58;43.44;101055.84;;;;-52
2021/04/22 10:13:35;;;;;;;3.02;1.60;;;;;;;20.53;41.70;101056.17;;;;-51
2021/04/22 10:16:35;;;;;;;4.41;1.69;;;;;;;20.53;42.28;101048.76;;;;-52
2021/04/22 10:19:35;;;;;;;2.27;1.51;;;;;;;20.53;42.31;101051.45;;;;-54
2021/04/22 10:22:35;;;;;;;2.51;1.69;;;;;;;20.51;42.47;101044.50;;;;-52
2021/04/22 10:25:35;;;;;;;3.67;1.60;;;;;;;20.51;42.53;101049.72;;;;-53
2021/04/22 10:28:35;;;;;;;2.73;1.60;;;;;;;20.50;42.53;101048.55;;;;-51
2021/04/22 10:31:35;;;;;;;3.08;1.59;;;;;;;20.51;42.45;101048.98;;;;-52
2021/04/22 10:34:35;;;;;;;3.65;1.50;;;;;;;20.50;42.43;101044.72;;;;-51
2021/04/22 10:37:35;;;;;;;2.30;1.59;;;;;;;20.49;42.48;101042.77;;;;-51
2021/04/22 10:40:35;;;;;;;2.42;1.56;;;;;;;20.49;42.53;101047.41;;;;-49
2021/04/22 10:43:35;;;;;;;2.03;1.45;;;;;;;20.48;42.46;101052.22;;;;-49
2021/04/22 10:46:37;;;;;;;3.07;1.61;;;;;;;20.48;42.52;101048.80;;;;-50
2021/04/22 10:49:35;;;;;;;2.26;1.58;;;;;;;20.49;42.47;101048.80;;;;-54
2021/04/22 10:52:35;;;;;;;2.81;1.50;;;;;;;20.49;42.50;101047.00;;;;-51
2021/04/22 10:55:35;;;;;;;2.12;1.43;;;;;;;20.48;42.39;101043.09;;;;-51
2021/04/22 10:58:35;;;;;;;2.65;1.51;;;;;;;20.48;42.44;101043.75;;;;-51
2021/04/22 11:01:35;;;;;;;1.92;1.41;;;;;;;20.48;42.38;101043.87;;;;-51
2021/04/22 11:04:35;;;;;;;2.58;1.60;;;;;;;20.47;42.39;101044.53;;;;-51
2021/04/22 11:07:35;;;;;;;2.11;1.49;;;;;;;20.48;42.34;101042.02;;;;-51
2021/04/22 11:10:35;;;;;;;2.80;1.40;;;;;;;20.48;42.30;101046.92;;;;-50
2021/04/22 11:13:35;;;;;;;2.25;1.49;;;;;;;20.48;42.34;101042.58;;;;-49
2021/04/22 11:16:35;;;;;;;2.09;1.50;;;;;;;20.47;42.37;101043.80;;;;-53
2021/04/22 11:19:36;;;;;;;3.12;1.57;;;;;;;20.48;42.32;101038.34;;;;-54
2021/04/22 11:22:35;;;;;;;2.51;1.42;;;;;;;20.48;42.36;101033.81;;;;-56
2021/04/22 11:25:35;;;;;;;2.57;1.37;;;;;;;20.50;42.75;101033.43;;;;-56
2021/04/22 11:28:35;;;;;;;2.65;1.58;;;;;;;20.50;42.43;101031.61;;;;-55
2021/04/22 11:31:35;;;;;;;2.63;1.57;;;;;;;20.50;42.33;101030.80;;;;-55
2021/04/22 11:34:35;;;;;;;2.35;1.37;;;;;;;20.50;42.35;101032.62;;;;-56
2021/04/22 11:37:37;;;;;;;2.01;1.48;;;;;;;20.50;42.38;101030.72;;;;-56
2021/04/22 11:40:35;;;;;;;2.39;1.65;;;;;;;20.50;42.30;101026.59;;;;-56
2021/04/22 11:43:35;;;;;;;1.80;1.31;;;;;;;20.49;42.29;101025.50;;;;-56
2021/04/22 11:46:35;;;;;;;1.79;1.39;;;;;;;20.50;42.27;101021.11;;;;-54
2021/04/22 11:49:35;;;;;;;2.50;1.44;;;;;;;20.49;42.33;101020.30;;;;-56
2021/04/22 11:52:35;;;;;;;1.81;1.42;;;;;;;20.49;42.30;101014.59;;;;-51
2021/04/22 11:55:35;;;;;;;1.75;1.45;;;;;;;20.51;42.37;101026.02;;;;-49
2021/04/22 11:58:38;;;;;;;1.69;1.40;;;;;;;20.51;42.24;101016.41;;;;-49
2021/04/22 12:01:35;;;;;;;2.38;1.50;;;;;;;20.50;42.30;101020.08;;;;-49
2021/04/22 12:04:36;;;;;;;1.74;1.40;;;;;;;20.51;42.32;101022.77;;;;-51
2021/04/22 12:07:35;;;;;;;2.02;1.48;;;;;;;20.51;42.27;101018.85;;;;-56
2021/04/22 12:10:35;;;;;;;1.98;1.41;;;;;;;20.51;42.25;101017.06;;;;-51
2021/04/22 12:13:35;;;;;;;1.69;1.43;;;;;;;20.51;42.14;101019.67;;;;-51
2021/04/22 12:16:35;;;;;;;1.95;1.46;;;;;;;20.51;42.27;101016.17;;;;-56
2021/04/22 12:19:35;;;;;;;1.97;1.42;;;;;;;20.52;42.29;101011.36;;;;-54
2021/04/22 12:22:35;;;;;;;2.45;1.49;;;;;;;20.52;42.27;101014.62;;;;-52
2021/04/22 12:25:35;;;;;;;2.26;1.47;;;;;;;20.51;42.16;101013.07;;;;-56
2021/04/22 12:28:35;;;;;;;1.90;1.41;;;;;;;20.54;42.26;101008.61;;;;-53
2021/04/22 12:31:35;;;;;;;2.68;1.48;;;;;;;20.56;43.03;101005.38;;;;-56
2021/04/22 12:34:35;;;;;;;1.61;1.32;;;;;;;20.58;42.95;101011.38;;;;-53
2021/04/22 12:37:35;;;;;;;1.70;1.49;;;;;;;20.60;43.16;101008.62;;;;-54
2021/04/22 12:40:35;;;;;;;1.55;1.37;;;;;;;20.64;43.08;101006.47;;;;-47
2021/04/22 12:43:35;;;;;;;2.69;1.53;;;;;;;20.67;43.26;101008.80;;;;-47
2021/04/22 12:46:35;;;;;;;4.27;1.60;;;;;;;20.70;43.00;101004.25;;;;-53
2021/04/22 12:49:35;;;;;;;4.32;1.45;;;;;;;20.69;42.78;101001.33;;;;-48
2021/04/22 12:52:35;;;;;;;2.24;1.32;;;;;;;20.70;42.53;101002.55;;;;-51
2021/04/22 12:55:35;;;;;;;2.22;1.49;;;;;;;20.68;42.43;101000.90;;;;-52
2021/04/22 12:58:35;;;;;;;4.29;1.50;;;;;;;20.67;42.33;101003.18;;;;-53
2021/04/22 13:01:35;;;;;;;2.09;1.40;;;;;;;20.67;42.34;100997.45;;;;-53
2021/04/22 13:04:35;;;;;;;2.37;1.44;;;;;;;20.66;42.30;100996.80;;;;-53
2021/04/22 13:07:36;;;;;;;2.19;1.41;;;;;;;20.66;42.32;101001.20;;;;-52
2021/04/22 13:10:36;;;;;;;1.75;1.43;;;;;;;20.66;42.28;100996.55;;;;-53
2021/04/22 13:13:35;;;;;;;2.05;1.34;;;;;;;20.66;42.13;101001.77;;;;-52
2021/04/22 13:16:35;;;;;;;2.50;1.33;;;;;;;20.67;42.25;100999.73;;;;-53
2021/04/22 13:19:36;;;;;;;2.51;1.39;;;;;;;20.66;42.16;100997.29;;;;-47
2021/04/22 13:22:35;;;;;;;2.92;1.49;;;;;;;20.67;42.13;100999.19;;;;-48
2021/04/22 13:25:35;;;;;;;2.01;1.35;;;;;;;20.67;42.12;100992.11;;;;-47
2021/04/22 13:28:35;;;;;;;2.30;1.49;;;;;;;20.67;42.25;100992.67;;;;-47
2021/04/22 13:31:35;;;;;;;2.44;1.40;;;;;;;20.68;42.15;100989.82;;;;-47
2021/04/22 13:34:35;;;;;;;1.73;1.39;;;;;;;20.67;42.20;100987.62;;;;-47
2021/04/22 13:37:35;;;;;;;1.90;1.51;;;;;;;20.68;42.16;100980.78;;;;-52
2021/04/22 13:40:35;;;;;;;3.74;1.67;;;;;;;20.69;41.97;100985.53;;;;-53
2021/04/22 13:43:35;;;;;;;4.15;1.53;;;;;;;20.69;41.70;100981.18;;;;-54
2021/04/22 13:46:35;;;;;;;2.29;1.51;;;;;;;20.68;41.81;100977.19;;;;-52
2021/04/22 13:49:35;;;;;;;2.40;1.45;;;;;;;20.68;41.80;100969.70;;;;-53
2021/04/22 13:52:37;;;;;;;1.84;1.50;;;;;;;20.68;41.94;100975.64;;;;-53
2021/04/22 13:55:35;;;;;;;3.59;1.56;;;;;;;20.68;41.90;100976.95;;;;-52
2021/04/22 13:58:36;;;;;;;2.00;1.42;;;;;;;20.69;42.03;100973.15;;;;-52
2021/04/22 14:01:35;;;;;;;2.21;1.47;;;;;;;20.69;41.85;100973.97;;;;-53
2021/04/22 14:04:35;;;;;;;1.73;1.47;;;;;;;20.71;41.81;100974.93;;;;-53
2021/04/22 14:07:35;;;;;;;1.74;1.39;;;;;;;20.70;41.88;100968.09;;;;-53
2021/04/22 14:10:36;;;;;;;1.81;1.36;;;;;;;20.69;41.87;100969.56;;;;-53
2021/04/22 14:13:35;;;;;;;1.83;1.39;;;;;;;20.68;41.90;100964.33;;;;-53
2021/04/22 14:16:35;;;;;;;1.96;1.39;;;;;;;20.71;41.89;100966.16;;;;-52
2021/04/22 14:19:35;;;;;;;1.96;1.49;;;;;;;20.71;41.80;100963.72;;;;-52
2021/04/22 14:22:35;;;;;;;2.82;1.53;;;;;;;20.72;41.88;100966.56;;;;-51
2021/04/22 14:25:35;;;;;;;2.33;1.65;;;;;;;20.73;41.60;100963.06;;;;-60
2021/04/22 14:28:35;;;;;;;2.53;1.60;;;;;;;20.72;41.63;100962.48;;;;-60
2021/04/22 14:31:35;;;;;;;2.72;1.50;;;;;;;20.72;41.67;100962.91;;;;-60
2021/04/22 14:34:35;;;;;;;2.91;1.61;;;;;;;20.72;41.71;100962.98;;;;-58
2021/04/22 14:37:35;;;;;;;2.23;1.55;;;;;;;20.72;41.72;100959.07;;;;-58
2021/04/22 14:40:35;;;;;;;2.13;1.44;;;;;;;20.72;41.61;100964.45;;;;-59
2021/04/22 14:43:35;;;;;;;4.48;1.61;;;;;;;20.72;41.78;100962.00;;;;-50
2021/04/22 14:46:35;;;;;;;3.25;1.69;;;;;;;20.74;42.05;100962.27;;;;-50
2021/04/22 14:49:35;;;;;;;2.82;1.57;;;;;;;20.75;42.28;100961.12;;;;-49
2021/04/22 14:52:35;;;;;;;2.45;1.60;;;;;;;20.77;42.22;100964.56;;;;-51
2021/04/22 14:55:35;;;;;;;3.55;1.79;;;;;;;20.74;42.20;100959.25;;;;-52
2021/04/22 14:58:35;;;;;;;5.68;2.29;;;;;;;20.69;41.23;100965.33;;;;-51
2021/04/22 15:01:35;;;;;;;3.97;2.19;;;;;;;20.70;41.29;100963.61;;;;-52
2021/04/22 15:04:35;;;;;;;5.37;2.12;;;;;;;20.71;41.12;100956.63;;;;-51
2021/04/22 15:07:35;;;;;;;4.47;2.10;;;;;;;20.73;41.22;100963.66;;;;-54
2021/04/22 15:10:35;;;;;;;3.97;1.97;;;;;;;20.73;41.25;100960.64;;;;-54
2021/04/22 15:13:36;;;;;;;3.75;1.96;;;;;;;20.73;41.24;100968.30;;;;-54
2021/04/22 15:16:35;;;;;;;2.75;1.90;;;;;;;20.74;41.36;100970.82;;;;-58
2021/04/22 15:19:36;;;;;;;3.56;2.00;;;;;;;20.75;41.33;100979.28;;;;-57
2021/04/22 15:22:35;;;;;;;3.61;1.94;;;;;;;20.74;41.38;100977.66;;;;-57
2021/04/22 15:25:35;;;;;;;2.91;1.67;;;;;;;20.75;41.37;100978.39;;;;-57
2021/04/22 15:28:35;;;;;;;3.44;1.98;;;;;;;20.74;41.44;100978.15;;;;-54
2021/04/22 15:31:35;;;;;;;4.05;1.81;;;;;;;20.74;41.40;100981.33;;;;-54
2021/04/22 15:34:35;;;;;;;2.16;1.61;;;;;;;20.74;41.38;100979.29;;;;-54
2021/04/22 15:37:35;;;;;;;4.83;2.03;;;;;;;20.74;41.47;100977.75;;;;-55
2021/04/22 15:40:35;;;;;;;3.85;1.89;;;;;;;20.74;41.39;100979.86;;;;-54
2021/04/22 15:43:35;;;;;;;2.69;1.73;;;;;;;20.74;41.38;100981.49;;;;-54
2021/04/22 15:46:35;;;;;;;2.36;1.71;;;;;;;20.74;41.45;100978.55;;;;-55
2021/04/22 15:49:35;;;;;;;2.43;1.71;;;;;;;20.74;41.46;100981.41;;;;-54
2021/04/22 15:52:35;;;;;;;2.33;1.59;;;;;;;20.74;41.48;100974.73;;;;-57
2021/04/22 15:55:35;;;;;;;1.92;1.61;;;;;;;20.73;41.39;100973.67;;;;-57
2021/04/22 15:58:35;;;;;;;3.37;1.75;;;;;;;20.74;41.36;100972.86;;;;-59
2021/04/22 16:01:35;;;;;;;3.94;1.80;;;;;;;20.74;41.41;100971.06;;;;-57
2021/04/22 16:04:35;;;;;;;3.46;1.80;;;;;;;20.73;41.48;100976.69;;;;-56
2021/04/22 16:07:35;;;;;;;2.71;1.74;;;;;;;20.74;41.53;100977.17;;;;-51
2021/04/22 16:10:35;;;;;;;3.85;1.71;;;;;;;20.75;41.58;100978.17;;;;-52
2021/04/22 16:13:35;;;;;;;5.03;1.80;;;;;;;20.75;41.52;100978.42;;;;-55
2021/04/22 16:16:36;;;;;;;2.05;1.48;;;;;;;20.74;41.47;100979.20;;;;-55
2021/04/22 16:19:35;;;;;;;2.91;1.73;;;;;;;20.74;41.54;100976.52;;;;-54
2021/04/22 16:22:35;;;;;;;4.71;1.69;;;;;;;20.74;41.47;100978.56;;;;-59
2021/04/22 16:25:35;;;;;;;5.56;2.08;;;;;;;20.73;41.64;100980.27;;;;-57
2021/04/22 16:28:35;;;;;;;5.27;2.37;;;;;;;20.74;41.50;100982.06;;;;-55
2021/04/22 16:31:35;;;;;;;3.56;2.41;;;;;;;20.74;41.33;100989.23;;;;-55
2021/04/22 16:34:35;;;;;;;4.33;2.42;;;;;;;20.75;41.21;100982.57;;;;-57
2021/04/22 16:37:35;;;;;;;4.39;2.30;;;;;;;20.75;41.10;100989.06;;;;-57
2021/04/22 16:40:35;;;;;;;3.09;2.18;;;;;;;20.75;41.14;100990.20;;;;-55
2021/04/22 16:43:35;;;;;;;3.91;2.05;;;;;;;20.75;41.14;100992.34;;;;-55